sensor_id;sensor_type;location;lat;lon;timestamp;temperature;humidity
47813;DHT22;34221;45.296;9.516;2023-03-24T00:00:07;14.60;79.60
47813;DHT22;34221;45.296;9.516;2023-03-24T00:00:27;14.60;80.10
47813;DHT22;34221;45.296;9.516;2023-03-24T00:00:42;14.60;80.40
47813;DHT22;34221;45.296;9.516;2023-03-24T00:01:01;14.60;80.40
47813;DHT22;34221;45.296;9.516;2023-03-24T00:01:18;14.60;79.80
47813;DHT22;34221;45.296;9.516;2023-03-24T00:01:33;14.60;80.20
47813;DHT22;34221;45.296;9.516;2023-03-24T00:02:23;14.60;80.10
47813;DHT22;34221;45.296;9.516;2023-03-24T00:02:40;14.70;79.40
47813;DHT22;34221;45.296;9.516;2023-03-24T00:02:56;14.60;79.40
47813;DHT22;34221;45.296;9.516;2023-03-24T00:03:14;14.60;79.50
47813;DHT22;34221;45.296;9.516;2023-03-24T00:03:31;14.60;79.60
47813;DHT22;34221;45.296;9.516;2023-03-24T00:03:46;14.60;79.40
47813;DHT22;34221;45.296;9.516;2023-03-24T00:04:02;14.60;79.30
47813;DHT22;34221;45.296;9.516;2023-03-24T00:04:18;14.60;79.50
47813;DHT22;34221;45.296;9.516;2023-03-24T00:04:33;14.60;79.20
47813;DHT22;34221;45.296;9.516;2023-03-24T00:04:50;14.60;80.10
47813;DHT22;34221;45.296;9.516;2023-03-24T00:05:12;14.60;79.90
47813;DHT22;34221;45.296;9.516;2023-03-24T00:05:29;14.60;79.30
47813;DHT22;34221;45.296;9.516;2023-03-24T00:05:44;14.60;80.30
47813;DHT22;34221;45.296;9.516;2023-03-24T00:06:01;14.60;80.10
47813;DHT22;34221;45.296;9.516;2023-03-24T00:06:18;14.60;79.80
47813;DHT22;34221;45.296;9.516;2023-03-24T00:06:36;14.60;79.60
47813;DHT22;34221;45.296;9.516;2023-03-24T00:06:51;14.60;80.10
47813;DHT22;34221;45.296;9.516;2023-03-24T00:07:09;14.60;79.80
47813;DHT22;34221;45.296;9.516;2023-03-24T00:07:28;14.50;80.10
47813;DHT22;34221;45.296;9.516;2023-03-24T00:07:44;14.50;80.50
47813;DHT22;34221;45.296;9.516;2023-03-24T00:07:59;14.60;80.00
47813;DHT22;34221;45.296;9.516;2023-03-24T00:08:16;14.60;80.00
47813;DHT22;34221;45.296;9.516;2023-03-24T00:08:34;14.60;79.90
47813;DHT22;34221;45.296;9.516;2023-03-24T00:08:50;14.60;80.30
47813;DHT22;34221;45.296;9.516;2023-03-24T00:09:06;14.60;80.30
47813;DHT22;34221;45.296;9.516;2023-03-24T00:09:21;14.50;79.80
47813;DHT22;34221;45.296;9.516;2023-03-24T00:09:36;14.60;79.30
47813;DHT22;34221;45.296;9.516;2023-03-24T00:09:52;14.60;80.20
47813;DHT22;34221;45.296;9.516;2023-03-24T00:10:10;14.60;80.60
47813;DHT22;34221;45.296;9.516;2023-03-24T00:10:29;14.60;80.20
47813;DHT22;34221;45.296;9.516;2023-03-24T00:10:48;14.60;79.60
47813;DHT22;34221;45.296;9.516;2023-03-24T00:11:07;14.50;79.90
47813;DHT22;34221;45.296;9.516;2023-03-24T00:11:23;14.50;79.60
47813;DHT22;34221;45.296;9.516;2023-03-24T00:11:39;14.50;79.60
47813;DHT22;34221;45.296;9.516;2023-03-24T00:11:54;14.50;80.30
47813;DHT22;34221;45.296;9.516;2023-03-24T00:12:11;14.50;80.40
47813;DHT22;34221;45.296;9.516;2023-03-24T00:12:27;14.60;80.40
47813;DHT22;34221;45.296;9.516;2023-03-24T00:12:43;14.60;80.50
47813;DHT22;34221;45.296;9.516;2023-03-24T00:12:59;14.60;80.20
47813;DHT22;34221;45.296;9.516;2023-03-24T00:13:14;14.60;79.40
47813;DHT22;34221;45.296;9.516;2023-03-24T00:13:30;14.50;79.30
47813;DHT22;34221;45.296;9.516;2023-03-24T00:13:45;14.60;79.70
47813;DHT22;34221;45.296;9.516;2023-03-24T00:14:03;14.50;79.40
47813;DHT22;34221;45.296;9.516;2023-03-24T00:14:18;14.50;80.10
47813;DHT22;34221;45.296;9.516;2023-03-24T00:14:34;14.60;80.60
47813;DHT22;34221;45.296;9.516;2023-03-24T00:14:52;14.60;80.40
47813;DHT22;34221;45.296;9.516;2023-03-24T00:15:12;14.60;80.40
47813;DHT22;34221;45.296;9.516;2023-03-24T00:15:30;14.60;81.00
47813;DHT22;34221;45.296;9.516;2023-03-24T00:15:45;14.60;80.30
47813;DHT22;34221;45.296;9.516;2023-03-24T00:16:05;14.60;79.80
47813;DHT22;34221;45.296;9.516;2023-03-24T00:16:24;14.60;80.10
47813;DHT22;34221;45.296;9.516;2023-03-24T00:16:41;14.60;80.30
47813;DHT22;34221;45.296;9.516;2023-03-24T00:16:56;14.60;79.30
47813;DHT22;34221;45.296;9.516;2023-03-24T00:17:13;14.50;78.90
47813;DHT22;34221;45.296;9.516;2023-03-24T00:17:31;14.50;79.90
47813;DHT22;34221;45.296;9.516;2023-03-24T00:17:50;14.50;80.00
47813;DHT22;34221;45.296;9.516;2023-03-24T00:18:05;14.50;80.40
47813;DHT22;34221;45.296;9.516;2023-03-24T00:18:24;14.50;80.80
47813;DHT22;34221;45.296;9.516;2023-03-24T00:18:44;14.50;80.50
47813;DHT22;34221;45.296;9.516;2023-03-24T00:19:03;14.50;80.60
47813;DHT22;34221;45.296;9.516;2023-03-24T00:19:19;14.50;80.50
47813;DHT22;34221;45.296;9.516;2023-03-24T00:19:36;14.50;80.00
47813;DHT22;34221;45.296;9.516;2023-03-24T00:19:52;14.50;79.50
47813;DHT22;34221;45.296;9.516;2023-03-24T00:20:13;14.50;80.20
47813;DHT22;34221;45.296;9.516;2023-03-24T00:20:29;14.50;80.60
47813;DHT22;34221;45.296;9.516;2023-03-24T00:20:46;14.50;80.70
47813;DHT22;34221;45.296;9.516;2023-03-24T00:21:03;14.50;80.40
47813;DHT22;34221;45.296;9.516;2023-03-24T00:21:19;14.50;81.10
47813;DHT22;34221;45.296;9.516;2023-03-24T00:21:37;14.50;80.70
47813;DHT22;34221;45.296;9.516;2023-03-24T00:21:52;14.60;81.30
47813;DHT22;34221;45.296;9.516;2023-03-24T00:22:10;14.50;80.90
47813;DHT22;34221;45.296;9.516;2023-03-24T00:22:29;14.60;80.40
47813;DHT22;34221;45.296;9.516;2023-03-24T00:22:47;14.50;80.60
47813;DHT22;34221;45.296;9.516;2023-03-24T00:23:04;14.50;79.90
47813;DHT22;34221;45.296;9.516;2023-03-24T00:23:19;14.50;80.10
47813;DHT22;34221;45.296;9.516;2023-03-24T00:23:36;14.50;80.60
47813;DHT22;34221;45.296;9.516;2023-03-24T00:23:53;14.50;79.90
47813;DHT22;34221;45.296;9.516;2023-03-24T00:24:10;14.50;79.50
47813;DHT22;34221;45.296;9.516;2023-03-24T00:24:26;14.50;79.50
47813;DHT22;34221;45.296;9.516;2023-03-24T00:24:41;14.40;80.00
47813;DHT22;34221;45.296;9.516;2023-03-24T00:25:00;14.40;80.00
47813;DHT22;34221;45.296;9.516;2023-03-24T00:25:20;14.40;80.40
47813;DHT22;34221;45.296;9.516;2023-03-24T00:25:37;14.40;80.30
47813;DHT22;34221;45.296;9.516;2023-03-24T00:26:07;14.40;80.90
47813;DHT22;34221;45.296;9.516;2023-03-24T00:26:25;14.40;81.40
47813;DHT22;34221;45.296;9.516;2023-03-24T00:26:41;14.40;81.40
47813;DHT22;34221;45.296;9.516;2023-03-24T00:26:56;14.40;80.50
47813;DHT22;34221;45.296;9.516;2023-03-24T00:27:12;14.40;80.70
47813;DHT22;34221;45.296;9.516;2023-03-24T00:27:30;14.40;80.90
47813;DHT22;34221;45.296;9.516;2023-03-24T00:27:45;14.30;80.70
47813;DHT22;34221;45.296;9.516;2023-03-24T00:28:03;14.40;80.80
47813;DHT22;34221;45.296;9.516;2023-03-24T00:28:20;14.40;81.00
47813;DHT22;34221;45.296;9.516;2023-03-24T00:28:36;14.30;81.30
47813;DHT22;34221;45.296;9.516;2023-03-24T00:28:51;14.30;80.80
47813;DHT22;34221;45.296;9.516;2023-03-24T00:29:08;14.30;80.50
47813;DHT22;34221;45.296;9.516;2023-03-24T00:29:26;14.30;80.80
47813;DHT22;34221;45.296;9.516;2023-03-24T00:29:41;14.30;80.90
47813;DHT22;34221;45.296;9.516;2023-03-24T00:29:56;14.30;81.40
47813;DHT22;34221;45.296;9.516;2023-03-24T00:30:14;14.30;81.60
47813;DHT22;34221;45.296;9.516;2023-03-24T00:30:29;14.30;81.10
47813;DHT22;34221;45.296;9.516;2023-03-24T00:30:45;14.30;81.20
47813;DHT22;34221;45.296;9.516;2023-03-24T00:31:06;14.30;80.90
47813;DHT22;34221;45.296;9.516;2023-03-24T00:31:22;14.30;80.80
47813;DHT22;34221;45.296;9.516;2023-03-24T00:31:38;14.20;80.80
47813;DHT22;34221;45.296;9.516;2023-03-24T00:31:54;14.20;81.10
47813;DHT22;34221;45.296;9.516;2023-03-24T00:32:09;14.20;80.70
47813;DHT22;34221;45.296;9.516;2023-03-24T00:32:24;14.10;80.70
47813;DHT22;34221;45.296;9.516;2023-03-24T00:32:40;14.10;81.30
47813;DHT22;34221;45.296;9.516;2023-03-24T00:32:56;14.10;81.80
47813;DHT22;34221;45.296;9.516;2023-03-24T00:33:12;14.20;82.00
47813;DHT22;34221;45.296;9.516;2023-03-24T00:33:29;14.10;82.20
47813;DHT22;34221;45.296;9.516;2023-03-24T00:33:47;14.10;81.60
47813;DHT22;34221;45.296;9.516;2023-03-24T00:34:08;14.20;81.90
47813;DHT22;34221;45.296;9.516;2023-03-24T00:34:24;14.20;81.60
47813;DHT22;34221;45.296;9.516;2023-03-24T00:34:39;14.10;81.90
47813;DHT22;34221;45.296;9.516;2023-03-24T00:34:57;14.10;81.60
47813;DHT22;34221;45.296;9.516;2023-03-24T00:35:14;14.10;81.70
47813;DHT22;34221;45.296;9.516;2023-03-24T00:35:29;14.10;82.00
47813;DHT22;34221;45.296;9.516;2023-03-24T00:35:44;14.10;82.70
47813;DHT22;34221;45.296;9.516;2023-03-24T00:36:05;14.10;82.50
47813;DHT22;34221;45.296;9.516;2023-03-24T00:36:23;14.10;82.50
47813;DHT22;34221;45.296;9.516;2023-03-24T00:36:39;14.10;82.20
47813;DHT22;34221;45.296;9.516;2023-03-24T00:36:55;14.10;82.20
47813;DHT22;34221;45.296;9.516;2023-03-24T00:37:10;14.10;82.10
47813;DHT22;34221;45.296;9.516;2023-03-24T00:37:25;14.10;81.80
47813;DHT22;34221;45.296;9.516;2023-03-24T00:38:00;14.10;82.20
47813;DHT22;34221;45.296;9.516;2023-03-24T00:38:16;14.10;82.30
47813;DHT22;34221;45.296;9.516;2023-03-24T00:38:33;14.10;82.30
47813;DHT22;34221;45.296;9.516;2023-03-24T00:38:50;14.10;82.10
47813;DHT22;34221;45.296;9.516;2023-03-24T00:39:05;14.00;82.00
47813;DHT22;34221;45.296;9.516;2023-03-24T00:39:21;14.00;81.90
47813;DHT22;34221;45.296;9.516;2023-03-24T00:39:36;14.00;82.30
47813;DHT22;34221;45.296;9.516;2023-03-24T00:39:51;14.00;82.50
47813;DHT22;34221;45.296;9.516;2023-03-24T00:40:08;14.00;82.40
47813;DHT22;34221;45.296;9.516;2023-03-24T00:40:26;14.00;82.40
47813;DHT22;34221;45.296;9.516;2023-03-24T00:40:45;14.00;82.50
47813;DHT22;34221;45.296;9.516;2023-03-24T00:41:04;14.00;82.90
47813;DHT22;34221;45.296;9.516;2023-03-24T00:41:21;14.00;82.90
47813;DHT22;34221;45.296;9.516;2023-03-24T00:41:40;14.00;83.10
47813;DHT22;34221;45.296;9.516;2023-03-24T00:41:58;14.00;84.00
47813;DHT22;34221;45.296;9.516;2023-03-24T00:42:15;14.00;83.00
47813;DHT22;34221;45.296;9.516;2023-03-24T00:42:32;14.00;82.80
47813;DHT22;34221;45.296;9.516;2023-03-24T00:42:49;14.00;83.10
47813;DHT22;34221;45.296;9.516;2023-03-24T00:43:04;14.10;82.60
47813;DHT22;34221;45.296;9.516;2023-03-24T00:43:19;14.00;82.60
47813;DHT22;34221;45.296;9.516;2023-03-24T00:43:35;14.00;82.50
47813;DHT22;34221;45.296;9.516;2023-03-24T00:43:56;14.00;82.50
47813;DHT22;34221;45.296;9.516;2023-03-24T00:44:17;14.00;82.50
47813;DHT22;34221;45.296;9.516;2023-03-24T00:44:31;13.90;82.60
47813;DHT22;34221;45.296;9.516;2023-03-24T00:44:47;14.00;82.50
47813;DHT22;34221;45.296;9.516;2023-03-24T00:45:04;14.00;82.70
47813;DHT22;34221;45.296;9.516;2023-03-24T00:45:22;13.90;82.60
47813;DHT22;34221;45.296;9.516;2023-03-24T00:45:37;13.90;82.70
47813;DHT22;34221;45.296;9.516;2023-03-24T00:46:00;13.90;82.80
47813;DHT22;34221;45.296;9.516;2023-03-24T00:46:21;13.90;83.10
47813;DHT22;34221;45.296;9.516;2023-03-24T00:46:45;13.90;83.20
47813;DHT22;34221;45.296;9.516;2023-03-24T00:47:09;13.90;83.40
47813;DHT22;34221;45.296;9.516;2023-03-24T00:47:24;13.90;82.90
47813;DHT22;34221;45.296;9.516;2023-03-24T00:47:41;13.90;83.20
47813;DHT22;34221;45.296;9.516;2023-03-24T00:47:58;13.80;83.30
47813;DHT22;34221;45.296;9.516;2023-03-24T00:48:17;13.80;83.30
47813;DHT22;34221;45.296;9.516;2023-03-24T00:48:34;13.80;83.60
47813;DHT22;34221;45.296;9.516;2023-03-24T00:48:49;13.80;83.50
47813;DHT22;34221;45.296;9.516;2023-03-24T00:49:08;13.80;83.60
47813;DHT22;34221;45.296;9.516;2023-03-24T00:49:28;13.80;83.50
47813;DHT22;34221;45.296;9.516;2023-03-24T00:49:56;13.80;83.60
47813;DHT22;34221;45.296;9.516;2023-03-24T00:50:14;13.80;83.50
47813;DHT22;34221;45.296;9.516;2023-03-24T00:50:30;13.80;83.50
47813;DHT22;34221;45.296;9.516;2023-03-24T00:50:49;13.80;83.50
47813;DHT22;34221;45.296;9.516;2023-03-24T00:51:05;13.80;83.60
47813;DHT22;34221;45.296;9.516;2023-03-24T00:51:24;13.80;83.70
47813;DHT22;34221;45.296;9.516;2023-03-24T00:51:40;13.80;83.80
47813;DHT22;34221;45.296;9.516;2023-03-24T00:51:56;13.80;84.00
47813;DHT22;34221;45.296;9.516;2023-03-24T00:52:14;13.80;84.20
47813;DHT22;34221;45.296;9.516;2023-03-24T00:52:34;13.80;84.30
47813;DHT22;34221;45.296;9.516;2023-03-24T00:52:49;13.80;84.10
47813;DHT22;34221;45.296;9.516;2023-03-24T00:53:04;13.80;84.00
47813;DHT22;34221;45.296;9.516;2023-03-24T00:53:20;13.80;83.90
47813;DHT22;34221;45.296;9.516;2023-03-24T00:53:37;13.80;83.80
47813;DHT22;34221;45.296;9.516;2023-03-24T00:53:57;13.80;84.00
47813;DHT22;34221;45.296;9.516;2023-03-24T00:54:13;13.80;84.20
47813;DHT22;34221;45.296;9.516;2023-03-24T00:54:28;13.80;84.00
47813;DHT22;34221;45.296;9.516;2023-03-24T00:54:46;13.80;84.00
47813;DHT22;34221;45.296;9.516;2023-03-24T00:55:03;13.80;83.90
47813;DHT22;34221;45.296;9.516;2023-03-24T00:55:20;13.80;84.00
47813;DHT22;34221;45.296;9.516;2023-03-24T00:55:35;13.80;84.00
47813;DHT22;34221;45.296;9.516;2023-03-24T00:55:51;13.80;84.00
47813;DHT22;34221;45.296;9.516;2023-03-24T00:56:06;13.80;83.90
47813;DHT22;34221;45.296;9.516;2023-03-24T00:56:26;13.80;83.80
47813;DHT22;34221;45.296;9.516;2023-03-24T00:56:42;13.80;83.90
47813;DHT22;34221;45.296;9.516;2023-03-24T00:56:57;13.80;84.60
47813;DHT22;34221;45.296;9.516;2023-03-24T00:57:17;13.80;83.90
47813;DHT22;34221;45.296;9.516;2023-03-24T00:57:35;13.80;83.80
47813;DHT22;34221;45.296;9.516;2023-03-24T00:57:50;13.80;83.90
47813;DHT22;34221;45.296;9.516;2023-03-24T00:58:05;13.80;83.80
47813;DHT22;34221;45.296;9.516;2023-03-24T00:58:20;13.80;84.00
47813;DHT22;34221;45.296;9.516;2023-03-24T00:58:36;13.80;84.00
47813;DHT22;34221;45.296;9.516;2023-03-24T00:58:52;13.80;84.00
47813;DHT22;34221;45.296;9.516;2023-03-24T00:59:11;13.80;83.90
47813;DHT22;34221;45.296;9.516;2023-03-24T00:59:27;13.80;84.00
47813;DHT22;34221;45.296;9.516;2023-03-24T00:59:43;13.80;84.00
47813;DHT22;34221;45.296;9.516;2023-03-24T01:00:04;13.80;83.90
47813;DHT22;34221;45.296;9.516;2023-03-24T01:00:27;13.80;83.90
47813;DHT22;34221;45.296;9.516;2023-03-24T01:00:45;13.80;83.90
47813;DHT22;34221;45.296;9.516;2023-03-24T01:01:02;13.80;84.00
47813;DHT22;34221;45.296;9.516;2023-03-24T01:01:20;13.80;84.10
47813;DHT22;34221;45.296;9.516;2023-03-24T01:01:36;13.80;84.70
47813;DHT22;34221;45.296;9.516;2023-03-24T01:01:54;13.80;84.00
47813;DHT22;34221;45.296;9.516;2023-03-24T01:02:12;13.80;84.10
47813;DHT22;34221;45.296;9.516;2023-03-24T01:02:32;13.80;84.30
47813;DHT22;34221;45.296;9.516;2023-03-24T01:02:49;13.80;84.30
47813;DHT22;34221;45.296;9.516;2023-03-24T01:03:08;13.80;84.30
47813;DHT22;34221;45.296;9.516;2023-03-24T01:03:24;13.80;84.40
47813;DHT22;34221;45.296;9.516;2023-03-24T01:03:42;13.80;84.40
47813;DHT22;34221;45.296;9.516;2023-03-24T01:04:02;13.70;84.40
47813;DHT22;34221;45.296;9.516;2023-03-24T01:04:19;13.80;84.70
47813;DHT22;34221;45.296;9.516;2023-03-24T01:04:34;13.80;84.70
47813;DHT22;34221;45.296;9.516;2023-03-24T01:04:53;13.80;84.50
47813;DHT22;34221;45.296;9.516;2023-03-24T01:05:08;13.80;84.70
47813;DHT22;34221;45.296;9.516;2023-03-24T01:05:26;13.70;84.80
47813;DHT22;34221;45.296;9.516;2023-03-24T01:05:43;13.80;84.80
47813;DHT22;34221;45.296;9.516;2023-03-24T01:06:02;13.80;84.70
47813;DHT22;34221;45.296;9.516;2023-03-24T01:06:18;13.80;84.80
47813;DHT22;34221;45.296;9.516;2023-03-24T01:06:36;13.80;84.80
47813;DHT22;34221;45.296;9.516;2023-03-24T01:06:52;13.80;84.80
47813;DHT22;34221;45.296;9.516;2023-03-24T01:07:13;13.80;84.90
47813;DHT22;34221;45.296;9.516;2023-03-24T01:07:32;13.80;84.70
47813;DHT22;34221;45.296;9.516;2023-03-24T01:07:47;13.80;84.50
47813;DHT22;34221;45.296;9.516;2023-03-24T01:08:07;13.80;84.40
47813;DHT22;34221;45.296;9.516;2023-03-24T01:08:24;13.80;84.40
47813;DHT22;34221;45.296;9.516;2023-03-24T01:08:39;13.80;85.00
47813;DHT22;34221;45.296;9.516;2023-03-24T01:08:54;13.80;85.00
47813;DHT22;34221;45.296;9.516;2023-03-24T01:09:09;13.90;85.60
47813;DHT22;34221;45.296;9.516;2023-03-24T01:09:27;13.90;85.60
47813;DHT22;34221;45.296;9.516;2023-03-24T01:09:42;13.90;85.90
47813;DHT22;34221;45.296;9.516;2023-03-24T01:09:59;13.90;85.20
47813;DHT22;34221;45.296;9.516;2023-03-24T01:10:15;13.90;84.70
47813;DHT22;34221;45.296;9.516;2023-03-24T01:10:35;13.90;84.60
47813;DHT22;34221;45.296;9.516;2023-03-24T01:10:56;13.80;84.50
47813;DHT22;34221;45.296;9.516;2023-03-24T01:11:11;13.80;84.50
47813;DHT22;34221;45.296;9.516;2023-03-24T01:11:26;13.90;84.60
47813;DHT22;34221;45.296;9.516;2023-03-24T01:11:42;13.90;84.60
47813;DHT22;34221;45.296;9.516;2023-03-24T01:11:57;13.90;84.70
47813;DHT22;34221;45.296;9.516;2023-03-24T01:12:12;13.90;84.70
47813;DHT22;34221;45.296;9.516;2023-03-24T01:12:31;13.90;84.60
47813;DHT22;34221;45.296;9.516;2023-03-24T01:12:49;13.90;84.70
47813;DHT22;34221;45.296;9.516;2023-03-24T01:13:04;13.80;84.60
47813;DHT22;34221;45.296;9.516;2023-03-24T01:13:28;13.80;84.50
47813;DHT22;34221;45.296;9.516;2023-03-24T01:13:44;13.80;84.60
47813;DHT22;34221;45.296;9.516;2023-03-24T01:13:59;13.80;84.80
47813;DHT22;34221;45.296;9.516;2023-03-24T01:14:14;13.80;85.40
47813;DHT22;34221;45.296;9.516;2023-03-24T01:14:30;13.80;84.80
47813;DHT22;34221;45.296;9.516;2023-03-24T01:14:46;13.80;84.80
47813;DHT22;34221;45.296;9.516;2023-03-24T01:15:04;13.80;85.00
47813;DHT22;34221;45.296;9.516;2023-03-24T01:15:24;13.80;85.00
47813;DHT22;34221;45.296;9.516;2023-03-24T01:15:43;13.80;85.00
47813;DHT22;34221;45.296;9.516;2023-03-24T01:15:59;13.80;85.00
47813;DHT22;34221;45.296;9.516;2023-03-24T01:16:14;13.80;85.80
47813;DHT22;34221;45.296;9.516;2023-03-24T01:16:29;13.80;85.20
47813;DHT22;34221;45.296;9.516;2023-03-24T01:16:44;13.80;85.20
47813;DHT22;34221;45.296;9.516;2023-03-24T01:17:00;13.80;85.10
47813;DHT22;34221;45.296;9.516;2023-03-24T01:17:15;13.80;85.00
47813;DHT22;34221;45.296;9.516;2023-03-24T01:17:30;13.80;84.90
47813;DHT22;34221;45.296;9.516;2023-03-24T01:17:46;13.80;84.90
47813;DHT22;34221;45.296;9.516;2023-03-24T01:18:02;13.80;84.90
47813;DHT22;34221;45.296;9.516;2023-03-24T01:18:23;13.80;85.00
47813;DHT22;34221;45.296;9.516;2023-03-24T01:18:38;13.80;85.10
47813;DHT22;34221;45.296;9.516;2023-03-24T01:18:54;13.80;85.10
47813;DHT22;34221;45.296;9.516;2023-03-24T01:19:09;13.80;85.30
47813;DHT22;34221;45.296;9.516;2023-03-24T01:19:25;13.80;85.30
47813;DHT22;34221;45.296;9.516;2023-03-24T01:19:40;13.80;85.30
47813;DHT22;34221;45.296;9.516;2023-03-24T01:19:56;13.80;85.20
47813;DHT22;34221;45.296;9.516;2023-03-24T01:20:12;13.80;85.20
47813;DHT22;34221;45.296;9.516;2023-03-24T01:20:28;13.80;85.40
47813;DHT22;34221;45.296;9.516;2023-03-24T01:20:47;13.80;85.50
47813;DHT22;34221;45.296;9.516;2023-03-24T01:21:07;13.80;85.60
47813;DHT22;34221;45.296;9.516;2023-03-24T01:21:24;13.80;85.50
47813;DHT22;34221;45.296;9.516;2023-03-24T01:21:39;13.80;85.40
47813;DHT22;34221;45.296;9.516;2023-03-24T01:21:55;13.80;85.40
47813;DHT22;34221;45.296;9.516;2023-03-24T01:22:10;13.80;85.40
47813;DHT22;34221;45.296;9.516;2023-03-24T01:22:28;13.80;85.40
47813;DHT22;34221;45.296;9.516;2023-03-24T01:22:44;13.80;85.30
47813;DHT22;34221;45.296;9.516;2023-03-24T01:23:01;13.80;85.30
47813;DHT22;34221;45.296;9.516;2023-03-24T01:23:22;13.80;85.40
47813;DHT22;34221;45.296;9.516;2023-03-24T01:23:38;13.80;85.40
47813;DHT22;34221;45.296;9.516;2023-03-24T01:23:55;13.80;85.50
47813;DHT22;34221;45.296;9.516;2023-03-24T01:24:11;13.80;85.60
47813;DHT22;34221;45.296;9.516;2023-03-24T01:24:27;13.80;85.70
47813;DHT22;34221;45.296;9.516;2023-03-24T01:24:43;13.80;85.60
47813;DHT22;34221;45.296;9.516;2023-03-24T01:24:58;13.80;85.60
47813;DHT22;34221;45.296;9.516;2023-03-24T01:25:16;13.80;85.70
47813;DHT22;34221;45.296;9.516;2023-03-24T01:25:34;13.80;85.60
47813;DHT22;34221;45.296;9.516;2023-03-24T01:25:51;13.80;85.80
47813;DHT22;34221;45.296;9.516;2023-03-24T01:26:09;13.80;85.70
47813;DHT22;34221;45.296;9.516;2023-03-24T01:26:24;13.80;85.60
47813;DHT22;34221;45.296;9.516;2023-03-24T01:26:40;13.80;85.60
47813;DHT22;34221;45.296;9.516;2023-03-24T01:26:54;13.70;85.70
47813;DHT22;34221;45.296;9.516;2023-03-24T01:27:10;13.80;85.90
47813;DHT22;34221;45.296;9.516;2023-03-24T01:27:25;13.70;86.00
47813;DHT22;34221;45.296;9.516;2023-03-24T01:27:40;13.80;86.00
47813;DHT22;34221;45.296;9.516;2023-03-24T01:27:55;13.70;85.90
47813;DHT22;34221;45.296;9.516;2023-03-24T01:28:16;13.80;86.00
47813;DHT22;34221;45.296;9.516;2023-03-24T01:28:38;13.80;85.80
47813;DHT22;34221;45.296;9.516;2023-03-24T01:28:54;13.80;85.80
47813;DHT22;34221;45.296;9.516;2023-03-24T01:29:09;13.80;85.80
47813;DHT22;34221;45.296;9.516;2023-03-24T01:29:25;13.80;86.00
47813;DHT22;34221;45.296;9.516;2023-03-24T01:29:40;13.70;85.90
47813;DHT22;34221;45.296;9.516;2023-03-24T01:30:04;13.80;86.00
47813;DHT22;34221;45.296;9.516;2023-03-24T01:30:23;13.80;85.90
47813;DHT22;34221;45.296;9.516;2023-03-24T01:30:40;13.70;86.00
47813;DHT22;34221;45.296;9.516;2023-03-24T01:30:55;13.70;86.10
47813;DHT22;34221;45.296;9.516;2023-03-24T01:31:10;13.80;86.00
47813;DHT22;34221;45.296;9.516;2023-03-24T01:31:25;13.80;86.00
47813;DHT22;34221;45.296;9.516;2023-03-24T01:31:40;13.80;86.00
47813;DHT22;34221;45.296;9.516;2023-03-24T01:31:56;13.80;86.00
47813;DHT22;34221;45.296;9.516;2023-03-24T01:32:11;13.80;86.10
47813;DHT22;34221;45.296;9.516;2023-03-24T01:32:28;13.80;86.00
47813;DHT22;34221;45.296;9.516;2023-03-24T01:32:43;13.70;85.90
47813;DHT22;34221;45.296;9.516;2023-03-24T01:32:58;13.70;85.90
47813;DHT22;34221;45.296;9.516;2023-03-24T01:33:13;13.70;86.00
47813;DHT22;34221;45.296;9.516;2023-03-24T01:33:29;13.80;86.10
47813;DHT22;34221;45.296;9.516;2023-03-24T01:33:44;13.80;86.10
47813;DHT22;34221;45.296;9.516;2023-03-24T01:34:19;13.80;86.20
47813;DHT22;34221;45.296;9.516;2023-03-24T01:34:34;13.80;86.30
47813;DHT22;34221;45.296;9.516;2023-03-24T01:34:49;13.80;86.50
47813;DHT22;34221;45.296;9.516;2023-03-24T01:35:04;13.80;86.30
47813;DHT22;34221;45.296;9.516;2023-03-24T01:35:21;13.80;86.30
47813;DHT22;34221;45.296;9.516;2023-03-24T01:35:39;13.80;86.70
47813;DHT22;34221;45.296;9.516;2023-03-24T01:35:54;13.80;86.30
47813;DHT22;34221;45.296;9.516;2023-03-24T01:36:09;13.80;86.10
47813;DHT22;34221;45.296;9.516;2023-03-24T01:36:25;13.80;86.00
47813;DHT22;34221;45.296;9.516;2023-03-24T01:36:40;13.80;86.40
47813;DHT22;34221;45.296;9.516;2023-03-24T01:36:55;13.80;86.60
47813;DHT22;34221;45.296;9.516;2023-03-24T01:37:10;13.80;86.50
47813;DHT22;34221;45.296;9.516;2023-03-24T01:37:26;13.80;86.30
47813;DHT22;34221;45.296;9.516;2023-03-24T01:37:41;13.80;86.40
47813;DHT22;34221;45.296;9.516;2023-03-24T01:37:57;13.80;86.30
47813;DHT22;34221;45.296;9.516;2023-03-24T01:38:13;13.80;86.30
47813;DHT22;34221;45.296;9.516;2023-03-24T01:38:28;13.80;86.10
47813;DHT22;34221;45.296;9.516;2023-03-24T01:38:44;13.80;86.20
47813;DHT22;34221;45.296;9.516;2023-03-24T01:38:59;13.80;86.20
47813;DHT22;34221;45.296;9.516;2023-03-24T01:39:15;13.80;86.10
47813;DHT22;34221;45.296;9.516;2023-03-24T01:39:30;13.80;86.00
47813;DHT22;34221;45.296;9.516;2023-03-24T01:39:46;13.80;86.10
47813;DHT22;34221;45.296;9.516;2023-03-24T01:40:01;13.80;86.20
47813;DHT22;34221;45.296;9.516;2023-03-24T01:40:24;13.80;86.20
47813;DHT22;34221;45.296;9.516;2023-03-24T01:40:45;13.80;86.30
47813;DHT22;34221;45.296;9.516;2023-03-24T01:41:01;13.80;86.10
47813;DHT22;34221;45.296;9.516;2023-03-24T01:41:17;13.80;86.10
47813;DHT22;34221;45.296;9.516;2023-03-24T01:41:36;13.90;86.10
47813;DHT22;34221;45.296;9.516;2023-03-24T01:41:52;13.90;86.10
47813;DHT22;34221;45.296;9.516;2023-03-24T01:42:19;13.90;86.00
47813;DHT22;34221;45.296;9.516;2023-03-24T01:42:37;13.90;85.90
47813;DHT22;34221;45.296;9.516;2023-03-24T01:42:52;13.90;85.90
47813;DHT22;34221;45.296;9.516;2023-03-24T01:43:19;13.90;85.90
47813;DHT22;34221;45.296;9.516;2023-03-24T01:43:35;13.90;85.80
47813;DHT22;34221;45.296;9.516;2023-03-24T01:43:50;13.90;86.00
47813;DHT22;34221;45.296;9.516;2023-03-24T01:44:42;13.90;86.10
47813;DHT22;34221;45.296;9.516;2023-03-24T01:45:00;13.90;86.00
47813;DHT22;34221;45.296;9.516;2023-03-24T01:45:41;13.90;85.90
47813;DHT22;34221;45.296;9.516;2023-03-24T01:46:14;13.80;85.90
47813;DHT22;34221;45.296;9.516;2023-03-24T01:46:33;13.90;86.00
47813;DHT22;34221;45.296;9.516;2023-03-24T01:46:47;13.90;86.00
47813;DHT22;34221;45.296;9.516;2023-03-24T01:47:07;13.80;85.90
47813;DHT22;34221;45.296;9.516;2023-03-24T01:47:22;13.80;86.00
47813;DHT22;34221;45.296;9.516;2023-03-24T01:47:37;13.80;86.00
47813;DHT22;34221;45.296;9.516;2023-03-24T01:47:52;13.80;86.10
47813;DHT22;34221;45.296;9.516;2023-03-24T01:48:34;13.80;86.00
47813;DHT22;34221;45.296;9.516;2023-03-24T01:49:02;13.80;86.00
47813;DHT22;34221;45.296;9.516;2023-03-24T01:49:20;13.90;86.10
47813;DHT22;34221;45.296;9.516;2023-03-24T01:49:49;13.90;86.00
47813;DHT22;34221;45.296;9.516;2023-03-24T01:50:06;13.90;86.10
47813;DHT22;34221;45.296;9.516;2023-03-24T01:50:21;13.90;86.10